Time;durP1;ratioP1;P1;durP2;ratioP2;P2;SDS_P1;SDS_P2;PMS_P1;PMS_P2;Temp;Humidity;BMP_temperature;BMP_pressure;BME280_temperature;BME280_humidity;BME280_pressure;Samples;Min_cycle;Max_cycle;Signal;HPM_P1;HPM_P2
2023/03/31 00:03:20;;;;;;;1.27;0.50;;;;;;;;;;12709784;23;20036;-90
2023/03/31 00:08:28;;;;;;;1.80;0.57;;;;;;;;;;12709381;23;20021;-89
2023/03/31 00:13:33;;;;;;;3.13;0.90;;;;;;;;;;12735439;23;20060;-89
2023/03/31 00:18:39;;;;;;;1.00;0.60;;;;;;;;;;12708958;23;20021;-89
2023/03/31 00:23:44;;;;;;;4.97;0.65;;;;;;;;;;12729394;23;20052;-86
2023/03/31 00:28:48;;;;;;;2.78;0.50;;;;;;;;;;12719862;23;20052;-89
2023/03/31 00:33:52;;;;;;;2.55;0.85;;;;;;;;;;12694666;23;20080;-86
2023/03/31 00:38:59;;;;;;;1.33;0.50;;;;;;;;;;12695183;23;20017;-87
2023/03/31 00:44:09;;;;;;;0.52;0.40;;;;;;;;;;12694954;23;20104;-87
2023/03/31 00:49:19;;;;;;;1.52;0.40;;;;;;;;;;12695265;23;20021;-88
2023/03/31 00:54:27;;;;;;;0.70;0.40;;;;;;;;;;12729590;23;20032;-87
2023/03/31 00:59:37;;;;;;;1.00;0.63;;;;;;;;;;12695592;23;20072;-88
2023/03/31 01:04:49;;;;;;;2.00;0.80;;;;;;;;;;12731288;23;20032;-88
2023/03/31 01:09:58;;;;;;;4.03;1.00;;;;;;;;;;12699220;23;20024;-90
2023/03/31 01:15:03;;;;;;;2.00;0.70;;;;;;;;;;12702927;23;20029;-88
2023/03/31 01:20:18;;;;;;;2.65;0.80;;;;;;;;;;12733474;23;20022;-91
2023/03/31 01:25:46;;;;;;;2.38;0.70;;;;;;;;;;12707433;23;20031;-87
2023/03/31 01:31:25;;;;;;;2.92;0.63;;;;;;;;;;12702076;23;20029;-88
2023/03/31 01:37:17;;;;;;;1.08;0.50;;;;;;;;;;12692809;23;20029;-91
2023/03/31 01:42:27;;;;;;;4.25;0.95;;;;;;;;;;12692422;23;20041;-86
2023/03/31 01:47:39;;;;;;;2.45;0.60;;;;;;;;;;12694771;23;20029;-86
2023/03/31 01:52:48;;;;;;;1.73;0.68;;;;;;;;;;12696277;23;20021;-87
2023/03/31 01:57:56;;;;;;;1.52;0.82;;;;;;;;;;12699453;23;20032;-86
2023/03/31 02:03:06;;;;;;;1.60;0.50;;;;;;;;;;12698769;23;20060;-87
2023/03/31 02:08:14;;;;;;;3.92;1.17;;;;;;;;;;12699801;23;20332;-90
2023/03/31 02:13:20;;;;;;;1.23;0.45;;;;;;;;;;12735690;23;20025;-85
2023/03/31 02:18:29;;;;;;;3.40;0.70;;;;;;;;;;12699025;23;20055;-86
2023/03/31 02:23:35;;;;;;;4.85;1.65;;;;;;;;;;12702013;23;20470;-86
2023/03/31 02:28:40;;;;;;;3.07;1.23;;;;;;;;;;12736618;23;20502;-84
2023/03/31 02:33:45;;;;;;;4.25;1.05;;;;;;;;;;12693309;23;20550;-84
2023/03/31 02:38:53;;;;;;;1.88;0.88;;;;;;;;;;12691584;23;20045;-84
2023/03/31 02:43:59;;;;;;;1.92;0.85;;;;;;;;;;12719400;23;20048;-83
2023/03/31 02:49:05;;;;;;;1.80;0.80;;;;;;;;;;12694391;23;20096;-84
2023/03/31 02:54:33;;;;;;;;;;;;;;;;;;12695508;23;20750;-84
2023/03/31 02:59:48;;;;;;;3.40;0.70;;;;;;;;;;12690039;23;19923;-84
2023/03/31 03:05:08;;;;;;;2.77;0.70;;;;;;;;;;12696122;23;20454;-84
2023/03/31 03:10:20;;;;;;;3.58;0.93;;;;;;;;;;12697857;23;20027;-86
2023/03/31 03:15:31;;;;;;;1.60;0.60;;;;;;;;;;12698940;23;20025;-88
2023/03/31 03:20:35;;;;;;;2.33;0.65;;;;;;;;;;12696981;23;20044;-83
2023/03/31 03:25:39;;;;;;;3.08;0.77;;;;;;;;;;12717750;23;20025;-84
2023/03/31 03:30:44;;;;;;;0.75;0.40;;;;;;;;;;12691569;23;20049;-83
2023/03/31 03:35:48;;;;;;;1.53;0.50;;;;;;;;;;12720319;23;20383;-83
2023/03/31 03:40:54;;;;;;;2.10;0.65;;;;;;;;;;12692914;23;20279;-84
2023/03/31 03:45:59;;;;;;;2.93;0.70;;;;;;;;;;12698280;23;20463;-86
2023/03/31 03:51:03;;;;;;;3.00;0.70;;;;;;;;;;12700369;23;20080;-86
2023/03/31 03:56:07;;;;;;;1.92;0.70;;;;;;;;;;12698910;23;20033;-86
2023/03/31 04:01:13;;;;;;;0.55;0.30;;;;;;;;;;12700907;23;20475;-86
2023/03/31 04:06:16;;;;;;;1.23;0.63;;;;;;;;;;12699879;23;20133;-90
2023/03/31 04:11:21;;;;;;;1.83;0.70;;;;;;;;;;12697600;23;20029;-89
2023/03/31 04:16:26;;;;;;;0.85;0.47;;;;;;;;;;12702734;23;20092;-86
2023/03/31 04:21:33;;;;;;;2.55;0.60;;;;;;;;;;12733374;23;20022;-85
2023/03/31 04:26:42;;;;;;;0.82;0.45;;;;;;;;;;12691773;23;20463;-83
2023/03/31 04:31:49;;;;;;;0.70;0.40;;;;;;;;;;12716809;23;20025;-84
2023/03/31 04:36:55;;;;;;;0.98;0.40;;;;;;;;;;12691015;23;20021;-83
2023/03/31 04:41:58;;;;;;;1.33;0.40;;;;;;;;;;12690376;23;20564;-83
2023/03/31 04:47:15;;;;;;;0.68;0.30;;;;;;;;;;12714491;23;20064;-85
2023/03/31 04:52:19;;;;;;;1.85;0.70;;;;;;;;;;12689955;23;20068;-83
2023/03/31 04:57:22;;;;;;;2.00;0.35;;;;;;;;;;12717620;23;20022;-82
2023/03/31 05:02:27;;;;;;;1.05;0.20;;;;;;;;;;12690700;23;20025;-82
2023/03/31 05:07:31;;;;;;;1.48;0.50;;;;;;;;;;12732089;23;20018;-83
2023/03/31 05:12:35;;;;;;;0.80;0.50;;;;;;;;;;12732408;23;20478;-83
2023/03/31 05:17:40;;;;;;;0.93;0.50;;;;;;;;;;12691030;23;20395;-83
2023/03/31 05:22:44;;;;;;;3.58;0.75;;;;;;;;;;12690031;23;20646;-82
2023/03/31 05:27:48;;;;;;;1.70;0.57;;;;;;;;;;12717617;23;20040;-82
2023/03/31 05:32:53;;;;;;;2.72;0.90;;;;;;;;;;12692973;23;20052;-83
2023/03/31 05:37:57;;;;;;;1.70;0.70;;;;;;;;;;12690701;23;20025;-82
2023/03/31 05:43:01;;;;;;;1.17;0.47;;;;;;;;;;12690979;23;20033;-83
2023/03/31 05:48:06;;;;;;;1.83;0.70;;;;;;;;;;12697523;23;20057;-89
2023/03/31 05:53:10;;;;;;;2.80;0.70;;;;;;;;;;12699184;23;20104;-85
2023/03/31 05:58:13;;;;;;;1.67;0.50;;;;;;;;;;12698909;23;20022;-85
2023/03/31 06:03:18;;;;;;;1.27;0.50;;;;;;;;;;12699332;23;20029;-85
2023/03/31 06:08:22;;;;;;;1.05;0.45;;;;;;;;;;12701194;23;20033;-85
2023/03/31 06:13:25;;;;;;;1.33;0.68;;;;;;;;;;12727490;23;20031;-85
2023/03/31 06:18:32;;;;;;;3.38;0.60;;;;;;;;;;12702953;23;20080;-85
2023/03/31 06:23:36;;;;;;;2.78;0.50;;;;;;;;;;12704081;23;20026;-83
2023/03/31 06:28:39;;;;;;;0.82;0.40;;;;;;;;;;12694299;23;20471;-84
2023/03/31 06:33:45;;;;;;;1.95;0.70;;;;;;;;;;12698136;23;20121;-83
2023/03/31 06:38:49;;;;;;;1.05;0.65;;;;;;;;;;12695331;23;20029;-84
2023/03/31 06:43:53;;;;;;;2.80;0.82;;;;;;;;;;12697401;23;20045;-85
2023/03/31 06:48:58;;;;;;;1.27;0.63;;;;;;;;;;12694729;23;20029;-85
2023/03/31 06:54:05;;;;;;;1.85;0.68;;;;;;;;;;12694243;23;20041;-85
2023/03/31 06:59:09;;;;;;;1.27;0.90;;;;;;;;;;12720765;23;20045;-86
2023/03/31 07:04:14;;;;;;;1.33;0.65;;;;;;;;;;12698777;23;20029;-87
2023/03/31 07:09:20;;;;;;;1.70;0.90;;;;;;;;;;12698326;23;20562;-87
2023/03/31 07:14:24;;;;;;;0.45;0.43;;;;;;;;;;12696835;23;20061;-86
2023/03/31 07:19:29;;;;;;;1.55;0.70;;;;;;;;;;12697314;23;20029;-85
2023/03/31 07:24:32;;;;;;;0.85;0.68;;;;;;;;;;12720827;23;20040;-85
2023/03/31 07:29:36;;;;;;;0.93;0.50;;;;;;;;;;12693927;23;20053;-85
2023/03/31 07:34:41;;;;;;;0.70;0.43;;;;;;;;;;12695229;23;20030;-85
2023/03/31 07:39:44;;;;;;;0.80;0.50;;;;;;;;;;12720402;23;20034;-85
2023/03/31 07:44:48;;;;;;;0.75;0.45;;;;;;;;;;12692864;23;20084;-85
2023/03/31 07:49:53;;;;;;;1.33;0.50;;;;;;;;;;12692367;23;20104;-86
2023/03/31 07:54:57;;;;;;;0.70;0.50;;;;;;;;;;12692087;23;20614;-85
2023/03/31 08:00:01;;;;;;;0.80;0.60;;;;;;;;;;12693327;23;20033;-85
2023/03/31 08:05:20;;;;;;;1.05;0.63;;;;;;;;;;12717697;23;20332;-86
2023/03/31 08:10:27;;;;;;;1.00;0.47;;;;;;;;;;12693076;23;20036;-85
2023/03/31 08:15:30;;;;;;;4.50;0.82;;;;;;;;;;12722119;23;20471;-86
2023/03/31 08:20:38;;;;;;;2.70;0.70;;;;;;;;;;12695805;23;20029;-92
2023/03/31 08:25:41;;;;;;;1.05;0.40;;;;;;;;;;12700018;23;20025;-87
2023/03/31 08:30:46;;;;;;;2.00;0.63;;;;;;;;;;12700693;23;20044;-86
2023/03/31 08:35:51;;;;;;;2.20;0.73;;;;;;;;;;12700945;23;20021;-86
2023/03/31 08:41:00;;;;;;;1.93;0.63;;;;;;;;;;12699848;23;20029;-86
2023/03/31 08:46:05;;;;;;;1.67;0.77;;;;;;;;;;12700382;23;20060;-87
2023/03/31 08:51:15;;;;;;;3.15;1.20;;;;;;;;;;12699282;23;20025;-89
2023/03/31 08:56:22;;;;;;;3.35;1.05;;;;;;;;;;12702503;23;20100;-86
2023/03/31 09:01:34;;;;;;;2.88;1.30;;;;;;;;;;12703392;23;20391;-86
2023/03/31 09:06:50;;;;;;;3.28;1.40;;;;;;;;;;12702606;23;20046;-86
2023/03/31 09:12:00;;;;;;;4.40;1.60;;;;;;;;;;12705178;23;20102;-86
2023/03/31 09:17:14;;;;;;;3.03;1.50;;;;;;;;;;12706364;23;20057;-86
2023/03/31 09:22:22;;;;;;;6.47;1.70;;;;;;;;;;12707907;23;20018;-87
2023/03/31 09:27:30;;;;;;;5.45;1.40;;;;;;;;;;12701854;23;20056;-86
2023/03/31 09:32:37;;;;;;;7.78;2.42;;;;;;;;;;12702279;23;20029;-87
2023/03/31 09:37:41;;;;;;;;;;;;;;;;;;12699624;23;20026;-88
2023/03/31 09:42:46;;;;;;;5.68;1.80;;;;;;;;;;12699742;23;20523;-87
2023/03/31 09:47:53;;;;;;;8.40;2.08;;;;;;;;;;12700756;23;20053;-87
2023/03/31 09:53:00;;;;;;;5.40;1.50;;;;;;;;;;12701240;23;20021;-88
2023/03/31 09:58:08;;;;;;;4.07;1.50;;;;;;;;;;12702457;23;20105;-87
2023/03/31 10:03:14;;;;;;;5.25;1.25;;;;;;;;;;12700364;23;20021;-87
2023/03/31 10:08:26;;;;;;;1.92;0.70;;;;;;;;;;12704900;23;20025;-86
2023/03/31 10:13:40;;;;;;;2.42;1.10;;;;;;;;;;12708676;23;20080;-87
2023/03/31 10:18:44;;;;;;;2.40;0.80;;;;;;;;;;12706568;23;20076;-87
2023/03/31 10:23:50;;;;;;;3.85;1.00;;;;;;;;;;12706058;23;20084;-87
2023/03/31 10:28:54;;;;;;;4.25;1.40;;;;;;;;;;12705907;23;20459;-87
2023/03/31 10:33:58;;;;;;;9.18;2.00;;;;;;;;;;12704879;23;20039;-89
2023/03/31 10:39:09;;;;;;;4.13;1.58;;;;;;;;;;12704208;23;20028;-87
2023/03/31 10:44:31;;;;;;;4.75;1.45;;;;;;;;;;12738667;23;20491;-87
2023/03/31 10:49:39;;;;;;;5.90;2.10;;;;;;;;;;12704365;23;20097;-88
2023/03/31 10:54:49;;;;;;;6.05;1.67;;;;;;;;;;12704894;23;20033;-87
2023/03/31 11:00:04;;;;;;;7.72;1.98;;;;;;;;;;12730190;23;20028;-85
2023/03/31 11:05:14;;;;;;;5.68;1.38;;;;;;;;;;12693688;23;20100;-84
2023/03/31 11:10:34;;;;;;;4.75;1.92;;;;;;;;;;12695792;23;20056;-85
2023/03/31 11:15:42;;;;;;;6.28;1.67;;;;;;;;;;12705662;23;20041;-85
2023/03/31 11:20:56;;;;;;;8.25;2.05;;;;;;;;;;12709114;23;20026;-88
2023/03/31 11:26:15;;;;;;;8.13;1.65;;;;;;;;;;12733250;23;20022;-87
2023/03/31 11:31:43;;;;;;;10.10;2.25;;;;;;;;;;12711239;23;20026;-88
2023/03/31 11:37:03;;;;;;;3.00;1.27;;;;;;;;;;12710774;23;20025;-87
2023/03/31 11:42:12;;;;;;;6.95;2.15;;;;;;;;;;12710034;23;20082;-88
2023/03/31 11:47:19;;;;;;;4.28;1.20;;;;;;;;;;12752562;23;20024;-87
2023/03/31 11:52:28;;;;;;;3.78;0.85;;;;;;;;;;12703852;23;20358;-87
2023/03/31 11:57:39;;;;;;;6.80;1.77;;;;;;;;;;12702295;23;20588;-87
2023/03/31 12:02:50;;;;;;;5.78;1.92;;;;;;;;;;12695376;23;20030;-86
2023/03/31 12:08:02;;;;;;;10.07;2.15;;;;;;;;;;12693430;23;20061;-86
2023/03/31 12:13:26;;;;;;;8.52;2.35;;;;;;;;;;12693962;23;20018;-85
2023/03/31 12:18:34;;;;;;;7.70;2.33;;;;;;;;;;12698333;23;20026;-87
2023/03/31 12:23:44;;;;;;;6.47;1.40;;;;;;;;;;12729902;23;20363;-91
2023/03/31 12:28:53;;;;;;;9.15;1.90;;;;;;;;;;12730338;23;20367;-86
2023/03/31 12:34:00;;;;;;;7.80;1.90;;;;;;;;;;12701351;23;20026;-86
2023/03/31 12:39:16;;;;;;;8.43;2.60;;;;;;;;;;12735694;23;20026;-86
2023/03/31 12:44:35;;;;;;;7.13;1.45;;;;;;;;;;12727065;23;20033;-86
2023/03/31 12:49:52;;;;;;;5.97;1.80;;;;;;;;;;12699772;23;20120;-87
2023/03/31 12:55:28;;;;;;;5.07;1.25;;;;;;;;;;12725745;23;20486;-86
2023/03/31 13:00:33;;;;;;;5.72;1.33;;;;;;;;;;12725865;23;20036;-86
2023/03/31 13:05:48;;;;;;;6.93;1.50;;;;;;;;;;12698746;23;20096;-85
2023/03/31 13:10:56;;;;;;;6.13;1.45;;;;;;;;;;12697800;23;20258;-86
2023/03/31 13:16:04;;;;;;;4.50;1.70;;;;;;;;;;12699828;23;20237;-87
2023/03/31 13:21:08;;;;;;;5.30;1.40;;;;;;;;;;12703017;23;20336;-86
2023/03/31 13:26:39;;;;;;;5.35;1.60;;;;;;;;;;12699578;23;20134;-87
2023/03/31 13:32:22;;;;;;;3.45;1.20;;;;;;;;;;12700155;23;20380;-88
2023/03/31 13:37:57;;;;;;;3.25;1.40;;;;;;;;;;12736945;23;20028;-85
2023/03/31 13:43:42;;;;;;;4.03;1.52;;;;;;;;;;12694682;23;20037;-85
2023/03/31 13:48:56;;;;;;;4.38;1.00;;;;;;;;;;12677989;23;20691;-85
2023/03/31 13:54:25;;;;;;;2.88;0.80;;;;;;;;;;12730445;23;20133;-86
2023/03/31 13:59:54;;;;;;;4.30;1.08;;;;;;;;;;12697103;23;20502;-88
2023/03/31 14:05:33;;;;;;;3.97;1.58;;;;;;;;;;12700440;23;20025;-87
2023/03/31 14:10:39;;;;;;;2.65;1.15;;;;;;;;;;12674987;23;20029;-88
2023/03/31 14:15:47;;;;;;;6.85;1.58;;;;;;;;;;12702030;23;20022;-86
2023/03/31 14:21:02;;;;;;;6.35;1.85;;;;;;;;;;12703195;23;20025;-87
2023/03/31 14:26:11;;;;;;;5.45;1.67;;;;;;;;;;12702105;23;20076;-87
2023/03/31 14:31:20;;;;;;;6.60;1.65;;;;;;;;;;12722390;23;20037;-85
2023/03/31 14:36:31;;;;;;;5.22;1.42;;;;;;;;;;12727034;23;20417;-87
2023/03/31 14:41:36;;;;;;;6.00;1.10;;;;;;;;;;12704897;23;20021;-89
2023/03/31 14:46:40;;;;;;;2.30;0.70;;;;;;;;;;12702829;23;20021;-87
2023/03/31 14:51:45;;;;;;;1.95;0.50;;;;;;;;;;12702295;23;20025;-87
2023/03/31 14:56:53;;;;;;;0.57;0.32;;;;;;;;;;12702066;23;20022;-86
2023/03/31 15:01:59;;;;;;;1.25;0.50;;;;;;;;;;12696988;23;20036;-85
2023/03/31 15:07:04;;;;;;;2.13;0.77;;;;;;;;;;12695704;23;20068;-85
2023/03/31 15:12:13;;;;;;;0.65;0.35;;;;;;;;;;12692928;23;20097;-85
2023/03/31 15:17:19;;;;;;;1.50;0.50;;;;;;;;;;12692191;23;20044;-85
2023/03/31 15:22:26;;;;;;;0.20;0.20;;;;;;;;;;12717396;23;20025;-85
2023/03/31 15:27:36;;;;;;;0.60;0.20;;;;;;;;;;12691909;23;20022;-85
2023/03/31 15:32:40;;;;;;;0.60;0.30;;;;;;;;;;12690750;23;20026;-84
2023/03/31 15:43:15;;;;;;;3.55;0.65;;;;;;;;;;12721829;23;20022;-85
2023/03/31 15:48:32;;;;;;;3.78;0.77;;;;;;;;;;12737559;23;20478;-87
2023/03/31 15:53:38;;;;;;;4.20;1.10;;;;;;;;;;12699883;23;20541;-86
2023/03/31 15:58:56;;;;;;;1.10;0.50;;;;;;;;;;12698003;23;20537;-86
2023/03/31 16:04:02;;;;;;;2.85;0.73;;;;;;;;;;12699353;23;20685;-85
2023/03/31 16:09:08;;;;;;;0.90;0.30;;;;;;;;;;12724354;23;20030;-87
2023/03/31 16:14:18;;;;;;;2.63;0.60;;;;;;;;;;12697631;23;20032;-87
2023/03/31 16:19:26;;;;;;;1.67;0.60;;;;;;;;;;12698922;23;20025;-86
2023/03/31 16:24:37;;;;;;;2.40;0.63;;;;;;;;;;12734017;23;20033;-86
2023/03/31 16:29:42;;;;;;;4.13;1.40;;;;;;;;;;12730868;23;20035;-88
2023/03/31 16:34:56;;;;;;;2.30;0.55;;;;;;;;;;12700441;23;20534;-84
2023/03/31 16:40:03;;;;;;;2.35;0.80;;;;;;;;;;12722228;23;20037;-84
2023/03/31 16:45:12;;;;;;;1.17;0.60;;;;;;;;;;12696994;23;20021;-85
2023/03/31 16:51:00;;;;;;;2.38;0.60;;;;;;;;;;12727409;23;20052;-86
2023/03/31 16:56:16;;;;;;;4.53;1.25;;;;;;;;;;12686950;23;20021;-85
2023/03/31 17:01:21;;;;;;;6.00;1.58;;;;;;;;;;12727592;23;20088;-86
2023/03/31 17:06:26;;;;;;;4.68;1.17;;;;;;;;;;12727883;23;20021;-85
2023/03/31 17:11:30;;;;;;;2.75;1.00;;;;;;;;;;12702659;23;20390;-85
2023/03/31 17:16:37;;;;;;;3.55;1.10;;;;;;;;;;12697401;23;20024;-83
2023/03/31 17:21:48;;;;;;;3.13;1.30;;;;;;;;;;12691313;23;20025;-84
2023/03/31 17:26:51;;;;;;;4.72;1.35;;;;;;;;;;12735220;23;20045;-83
2023/03/31 17:31:56;;;;;;;3.78;1.00;;;;;;;;;;12690940;23;20045;-84
2023/03/31 17:37:01;;;;;;;4.18;1.10;;;;;;;;;;12717379;23;20021;-84
2023/03/31 17:42:05;;;;;;;2.38;0.85;;;;;;;;;;12690591;23;20402;-83
2023/03/31 17:47:10;;;;;;;2.30;0.70;;;;;;;;;;12717078;23;20018;-83
2023/03/31 17:52:14;;;;;;;3.88;0.82;;;;;;;;;;12716242;23;20032;-84
2023/03/31 17:57:17;;;;;;;2.30;0.77;;;;;;;;;;12733575;23;20026;-84
2023/03/31 18:02:26;;;;;;;;;;;;;;;;;;12717611;23;20026;-83
2023/03/31 18:07:33;;;;;;;2.30;0.80;;;;;;;;;;12698553;23;19976;-87
2023/03/31 18:12:40;;;;;;;2.90;0.70;;;;;;;;;;12742131;23;20080;-86
2023/03/31 18:17:49;;;;;;;1.90;0.70;;;;;;;;;;12728372;23;20021;-85
2023/03/31 18:22:53;;;;;;;2.28;0.95;;;;;;;;;;12700970;23;20407;-86
2023/03/31 18:27:59;;;;;;;1.67;0.85;;;;;;;;;;12702281;23;20065;-85
2023/03/31 18:33:05;;;;;;;3.58;1.20;;;;;;;;;;12731558;23;20021;-86
2023/03/31 18:38:11;;;;;;;2.42;1.05;;;;;;;;;;12705159;23;20029;-88
2023/03/31 18:43:20;;;;;;;5.20;1.48;;;;;;;;;;12704927;23;20586;-86
2023/03/31 18:48:26;;;;;;;3.33;0.98;;;;;;;;;;12731030;23;20110;-88
2023/03/31 18:53:32;;;;;;;1.40;0.50;;;;;;;;;;12732040;23;20080;-84
2023/03/31 18:58:38;;;;;;;3.42;0.75;;;;;;;;;;12693642;23;20026;-83
2023/03/31 19:03:44;;;;;;;3.35;1.00;;;;;;;;;;12694120;23;20033;-83
2023/03/31 19:08:47;;;;;;;2.53;1.27;;;;;;;;;;12698099;23;20030;-85
2023/03/31 19:13:54;;;;;;;5.65;0.95;;;;;;;;;;12703201;23;20080;-86
2023/03/31 19:19:02;;;;;;;2.58;1.00;;;;;;;;;;12703084;23;20029;-85
2023/03/31 19:24:11;;;;;;;0.70;0.70;;;;;;;;;;12696291;23;20026;-82
2023/03/31 19:29:14;;;;;;;1.90;0.68;;;;;;;;;;12691128;23;20108;-84
2023/03/31 19:34:19;;;;;;;4.15;1.30;;;;;;;;;;12725827;23;20043;-83
2023/03/31 19:39:24;;;;;;;1.83;0.90;;;;;;;;;;12726034;23;20678;-82
2023/03/31 19:44:29;;;;;;;3.00;1.05;;;;;;;;;;12695607;23;20104;-82
2023/03/31 19:49:34;;;;;;;3.35;1.08;;;;;;;;;;12697039;23;20025;-82
2023/03/31 19:54:38;;;;;;;4.72;1.38;;;;;;;;;;12696754;23;20049;-82
2023/03/31 19:59:45;;;;;;;3.47;1.08;;;;;;;;;;12722663;23;20025;-82
2023/03/31 20:04:51;;;;;;;2.80;1.00;;;;;;;;;;12698324;23;20033;-83
2023/03/31 20:09:55;;;;;;;6.90;1.35;;;;;;;;;;12695860;23;20257;-83
2023/03/31 20:15:01;;;;;;;3.47;1.13;;;;;;;;;;12678484;23;20030;-82
2023/03/31 20:20:07;;;;;;;3.40;0.90;;;;;;;;;;12696115;23;20497;-83
2023/03/31 20:25:11;;;;;;;2.53;0.75;;;;;;;;;;12722889;23;20032;-83
2023/03/31 20:30:17;;;;;;;2.53;1.00;;;;;;;;;;12696518;23;20028;-83
2023/03/31 20:35:23;;;;;;;4.15;1.23;;;;;;;;;;12695532;23;20048;-83
2023/03/31 20:40:28;;;;;;;2.58;0.85;;;;;;;;;;12695502;23;20045;-84
2023/03/31 20:45:33;;;;;;;2.25;1.33;;;;;;;;;;12699261;23;20085;-84
2023/03/31 20:50:40;;;;;;;2.55;0.82;;;;;;;;;;12696452;23;20041;-83
2023/03/31 20:55:44;;;;;;;1.20;0.55;;;;;;;;;;12724290;23;20026;-84
2023/03/31 21:00:48;;;;;;;4.55;1.42;;;;;;;;;;12724904;23;20022;-84
2023/03/31 21:05:53;;;;;;;3.70;1.02;;;;;;;;;;12726032;23;20032;-83
2023/03/31 21:10:57;;;;;;;1.70;0.70;;;;;;;;;;12700435;23;20105;-83
2023/03/31 21:16:05;;;;;;;3.55;1.20;;;;;;;;;;12701274;23;20025;-84
2023/03/31 21:21:18;;;;;;;4.00;1.20;;;;;;;;;;12729323;23;20029;-84
2023/03/31 21:26:25;;;;;;;2.78;0.90;;;;;;;;;;12702807;23;20347;-83
2023/03/31 21:31:29;;;;;;;3.15;0.65;;;;;;;;;;12703903;23;20410;-84
2023/03/31 21:36:35;;;;;;;3.70;0.93;;;;;;;;;;12725490;23;20105;-84
2023/03/31 21:41:44;;;;;;;3.53;1.00;;;;;;;;;;12696839;23;20025;-84
2023/03/31 21:46:52;;;;;;;3.80;1.10;;;;;;;;;;12697178;23;20489;-83
2023/03/31 21:51:58;;;;;;;2.17;0.90;;;;;;;;;;12692534;23;20410;-83
2023/03/31 21:57:02;;;;;;;;;;;;;;;;;;12692928;23;20022;-83
2023/03/31 22:02:06;;;;;;;4.28;1.67;;;;;;;;;;12691302;23;20486;-83
2023/03/31 22:07:16;;;;;;;1.90;0.75;;;;;;;;;;12719986;23;20022;-84
2023/03/31 22:12:22;;;;;;;3.78;1.13;;;;;;;;;;12727779;23;20116;-89
2023/03/31 22:17:28;;;;;;;4.30;1.37;;;;;;;;;;12724861;23;20489;-84
2023/03/31 22:22:34;;;;;;;3.72;1.25;;;;;;;;;;12694975;23;20030;-85
2023/03/31 22:27:37;;;;;;;3.83;1.00;;;;;;;;;;12728379;23;20021;-83
2023/03/31 22:32:41;;;;;;;3.47;1.27;;;;;;;;;;12719741;23;20025;-83
2023/03/31 22:37:47;;;;;;;4.85;1.00;;;;;;;;;;12691928;23;20049;-82
2023/03/31 22:42:53;;;;;;;3.25;1.27;;;;;;;;;;12732683;23;20036;-83
2023/03/31 22:47:57;;;;;;;2.88;1.25;;;;;;;;;;12693758;23;20037;-83
2023/03/31 22:53:04;;;;;;;3.00;1.00;;;;;;;;;;12693861;23;20072;-83
2023/03/31 22:58:07;;;;;;;7.68;1.60;;;;;;;;;;12692538;23;20041;-83
2023/03/31 23:03:11;;;;;;;2.47;0.93;;;;;;;;;;12693796;23;20467;-83
2023/03/31 23:08:16;;;;;;;3.83;1.20;;;;;;;;;;12718558;23;20403;-83
2023/03/31 23:13:20;;;;;;;4.43;1.20;;;;;;;;;;12693747;23;20026;-83
2023/03/31 23:18:23;;;;;;;3.30;1.05;;;;;;;;;;12693143;23;20025;-83
2023/03/31 23:23:28;;;;;;;2.05;0.93;;;;;;;;;;12689882;23;20418;-84
2023/03/31 23:28:33;;;;;;;4.70;1.40;;;;;;;;;;12697544;23;20022;-85
2023/03/31 23:33:39;;;;;;;2.78;0.95;;;;;;;;;;12725026;23;20036;-85
2023/03/31 23:38:45;;;;;;;3.03;1.00;;;;;;;;;;12734688;23;20021;-85
2023/03/31 23:43:50;;;;;;;4.90;1.13;;;;;;;;;;12698636;23;20088;-87
2023/03/31 23:48:53;;;;;;;2.45;1.08;;;;;;;;;;12697587;23;20021;-86
2023/03/31 23:53:58;;;;;;;2.78;0.88;;;;;;;;;;12698074;23;20104;-86
2023/03/31 23:59:04;;;;;;;3.47;1.00;;;;;;;;;;12723871;23;20276;-85
